Time;durP1;ratioP1;P1;durP2;ratioP2;P2;SDS_P1;SDS_P2;PMS_P1;PMS_P2;Temp;Humidity;BMP_temperature;BMP_pressure;BME280_temperature;BME280_humidity;BME280_pressure;Samples;Min_cycle;Max_cycle;Signal;HPM_P1;HPM_P2
2023/01/01 00:00:43;;;;;;;12.05;8.57;;;4.80;99.90;;;;;;4778580;29;20121;-73
2023/01/01 00:03:11;;;;;;;10.82;7.75;;;4.80;99.90;;;;;;4777498;30;20158;-70
2023/01/01 00:05:40;;;;;;;9.20;7.20;;;4.80;99.90;;;;;;4782209;29;20146;-71
2023/01/01 00:08:08;;;;;;;9.00;6.30;;;4.80;99.90;;;;;;4780359;29;20079;-70
2023/01/01 00:10:35;;;;;;;10.45;6.22;;;4.80;99.90;;;;;;4781446;30;20055;-69
2023/01/01 00:13:03;;;;;;;8.50;6.20;;;4.80;99.90;;;;;;4785376;29;20066;-68
2023/01/01 00:15:30;;;;;;;8.45;6.53;;;4.70;99.90;;;;;;4784909;29;20533;-69
2023/01/01 00:17:58;;;;;;;7.80;5.22;;;4.70;99.90;;;;;;4793811;29;20058;-69
2023/01/01 00:20:25;;;;;;;7.75;6.38;;;4.80;99.90;;;;;;4785866;29;20059;-69
2023/01/01 00:22:54;;;;;;;8.30;6.47;;;4.80;99.90;;;;;;4785505;29;20137;-70
2023/01/01 00:25:22;;;;;;;9.52;6.38;;;4.80;99.90;;;;;;4782460;29;20452;-68
2023/01/01 00:27:50;;;;;;;7.22;5.60;;;4.70;99.90;;;;;;4768598;29;20055;-69
2023/01/01 00:30:17;;;;;;;6.57;5.60;;;4.70;99.90;;;;;;4799800;29;20047;-71
2023/01/01 00:32:45;;;;;;;7.57;5.88;;;4.70;99.90;;;;;;4776727;29;20058;-68
2023/01/01 00:35:12;;;;;;;5.72;5.13;;;4.70;99.90;;;;;;4784700;29;20051;-70
2023/01/01 00:37:40;;;;;;;7.68;6.60;;;4.70;99.90;;;;;;4786091;29;20448;-68
2023/01/01 00:40:10;;;;;;;6.53;5.28;;;4.70;99.90;;;;;;4786538;29;20055;-70
2023/01/01 00:42:40;;;;;;;5.68;5.13;;;4.80;99.90;;;;;;4786400;29;20514;-68
2023/01/01 00:45:10;;;;;;;9.15;5.75;;;4.70;99.90;;;;;;4785601;29;20055;-68
2023/01/01 00:47:38;;;;;;;10.15;6.30;;;4.70;99.90;;;;;;4785683;29;20078;-70
2023/01/01 00:50:06;;;;;;;7.47;5.47;;;4.70;99.90;;;;;;4785085;29;20505;-68
2023/01/01 00:52:34;;;;;;;5.75;4.90;;;4.80;99.90;;;;;;4785810;29;20541;-70
2023/01/01 00:55:01;;;;;;;7.60;5.82;;;4.80;99.90;;;;;;4785114;29;20054;-70
2023/01/01 00:57:31;;;;;;;7.57;5.57;;;4.80;99.90;;;;;;4785798;29;20420;-70
2023/01/01 00:59:59;;;;;;;8.85;5.43;;;4.70;99.90;;;;;;4783495;29;20154;-70
2023/01/01 01:02:26;;;;;;;6.05;4.63;;;4.70;99.90;;;;;;4784219;30;20116;-69
2023/01/01 01:04:54;;;;;;;5.20;4.10;;;4.60;99.90;;;;;;4785392;29;20055;-68
2023/01/01 01:07:21;;;;;;;6.15;4.97;;;4.70;99.90;;;;;;4781052;29;20150;-70
2023/01/01 01:09:48;;;;;;;5.35;4.25;;;4.70;99.90;;;;;;4773632;30;20098;-69
2023/01/01 01:12:16;;;;;;;6.80;4.97;;;4.60;99.90;;;;;;4779520;29;20056;-69
2023/01/01 01:14:45;;;;;;;6.65;4.80;;;4.70;99.90;;;;;;4778301;30;20067;-69
2023/01/01 01:17:12;;;;;;;4.57;3.80;;;4.70;99.90;;;;;;4780099;29;20555;-69
2023/01/01 01:19:40;;;;;;;3.85;3.40;;;4.70;99.90;;;;;;4780348;29;20069;-68
2023/01/01 01:22:07;;;;;;;4.93;4.13;;;4.80;99.90;;;;;;4785393;29;20051;-70
2023/01/01 01:24:35;;;;;;;5.32;4.07;;;4.80;99.90;;;;;;4785724;29;20063;-68
2023/01/01 01:27:02;;;;;;;5.80;3.85;;;4.80;99.90;;;;;;4784160;29;20100;-68
2023/01/01 01:29:30;;;;;;;5.20;3.63;;;4.80;99.90;;;;;;4784147;29;20088;-69
2023/01/01 01:31:59;;;;;;;3.45;3.10;;;4.80;99.90;;;;;;4784419;30;20421;-68
2023/01/01 01:34:26;;;;;;;4.88;3.83;;;4.80;99.90;;;;;;4784777;29;20055;-69
2023/01/01 01:36:53;;;;;;;4.07;3.50;;;4.80;99.90;;;;;;4782443;30;20469;-69
2023/01/01 01:39:21;;;;;;;4.20;3.47;;;4.80;99.90;;;;;;4784451;29;20594;-68
2023/01/01 01:41:49;;;;;;;3.72;3.40;;;4.90;99.90;;;;;;4784313;29;20058;-68
2023/01/01 01:44:53;;;;;;;3.05;2.75;;;4.90;99.90;;;;;;4784543;29;20047;-69
2023/01/01 01:47:28;;;;;;;3.53;2.50;;;4.90;99.90;;;;;;4784471;29;20348;-68
2023/01/01 01:50:02;;;;;;;3.58;2.67;;;4.90;99.90;;;;;;4784841;29;20146;-68
2023/01/01 01:52:32;;;;;;;3.80;2.22;;;5.00;99.90;;;;;;4784286;29;20058;-68
2023/01/01 01:55:01;;;;;;;3.92;2.63;;;5.00;99.90;;;;;;4784240;29;20059;-68
2023/01/01 01:57:31;;;;;;;2.35;2.15;;;5.00;99.90;;;;;;4784424;29;20047;-68
2023/01/01 02:00:00;;;;;;;2.50;2.30;;;5.00;99.90;;;;;;4784306;29;20055;-68
2023/01/01 02:02:35;;;;;;;3.15;2.30;;;5.10;99.90;;;;;;4783889;29;20051;-68
2023/01/01 02:05:04;;;;;;;3.13;1.88;;;5.10;99.90;;;;;;4783397;29;20055;-68
2023/01/01 02:07:33;;;;;;;3.65;1.75;;;5.10;99.90;;;;;;4784396;29;20043;-67
2023/01/01 02:10:02;;;;;;;2.25;2.05;;;5.20;99.90;;;;;;4784020;29;20093;-68
2023/01/01 02:12:31;;;;;;;2.42;2.08;;;5.30;99.90;;;;;;4782431;29;20043;-68
2023/01/01 02:14:59;;;;;;;2.63;2.15;;;5.20;99.90;;;;;;4777231;29;20179;-67
2023/01/01 02:17:35;;;;;;;3.20;1.98;;;5.20;99.90;;;;;;4782128;29;20062;-67
2023/01/01 02:20:24;;;;;;;1.70;1.55;;;5.20;99.90;;;;;;4784503;29;20071;-69
2023/01/01 02:24:05;;;;;;;2.03;1.83;;;5.20;99.90;;;;;;4774318;29;20146;-68
2023/01/01 02:26:52;;;;;;;2.78;1.92;;;5.30;99.90;;;;;;4783829;29;20065;-67
2023/01/01 02:29:40;;;;;;;2.45;2.10;;;5.20;99.90;;;;;;4787962;29;20059;-68
2023/01/01 02:32:11;;;;;;;3.30;2.08;;;5.20;99.90;;;;;;4786975;29;20059;-68
2023/01/01 02:34:43;;;;;;;2.60;2.40;;;5.20;99.90;;;;;;4770733;30;20055;-67
2023/01/01 02:37:15;;;;;;;3.00;2.15;;;5.20;99.90;;;;;;4788339;29;20080;-68
2023/01/01 02:39:48;;;;;;;4.68;1.95;;;5.20;99.90;;;;;;4785171;29;20457;-68
2023/01/01 02:42:17;;;;;;;3.22;2.20;;;5.20;99.90;;;;;;4798292;29;20517;-68
2023/01/01 02:44:51;;;;;;;2.90;2.00;;;5.20;99.90;;;;;;4778279;30;20495;-68
2023/01/01 02:47:20;;;;;;;2.53;2.03;;;5.20;99.90;;;;;;4786851;29;20055;-69
2023/01/01 02:50:03;;;;;;;2.33;2.13;;;5.30;99.90;;;;;;4786443;30;20513;-68
2023/01/01 02:53:10;;;;;;;2.42;2.22;;;5.30;99.90;;;;;;4775262;30;20051;-67
2023/01/01 02:55:49;;;;;;;2.78;2.58;;;5.30;99.90;;;;;;4785637;30;20143;-68
2023/01/01 03:01:18;;;;;;;2.50;2.20;;;5.30;99.90;;;;;;4787620;30;20086;-68
2023/01/01 03:04:01;;;;;;;3.97;1.95;;;5.30;99.90;;;;;;4785339;29;20063;-68
2023/01/01 03:06:38;;;;;;;3.25;2.15;;;5.30;99.90;;;;;;4785905;29;20062;-68
2023/01/01 03:09:15;;;;;;;2.85;2.15;;;5.40;99.90;;;;;;4785168;29;20151;-67
2023/01/01 03:11:57;;;;;;;2.10;2.00;;;5.40;99.90;;;;;;4785980;29;20401;-67
2023/01/01 03:14:33;;;;;;;2.92;2.00;;;5.40;99.90;;;;;;4776174;30;20066;-68
2023/01/01 03:17:08;;;;;;;2.53;2.25;;;5.40;99.90;;;;;;4785956;29;20071;-68
2023/01/01 03:19:39;;;;;;;3.28;2.17;;;5.40;99.90;;;;;;4786924;29;20095;-68
2023/01/01 03:22:10;;;;;;;3.80;2.33;;;5.40;99.90;;;;;;4785860;29;20158;-68
2023/01/01 03:24:44;;;;;;;4.18;2.50;;;5.50;99.90;;;;;;4783513;29;20066;-68
2023/01/01 03:27:17;;;;;;;3.90;2.05;;;5.50;99.90;;;;;;4786352;29;20059;-68
2023/01/01 03:29:47;;;;;;;3.65;3.03;;;5.50;99.90;;;;;;4784266;30;20146;-67
2023/01/01 03:32:22;;;;;;;3.20;2.53;;;5.50;99.90;;;;;;4786317;29;20081;-67
2023/01/01 03:34:54;;;;;;;5.90;2.72;;;5.50;99.90;;;;;;4783620;29;20055;-67
2023/01/01 03:37:27;;;;;;;2.80;2.60;;;5.50;99.90;;;;;;4786026;30;20062;-68
2023/01/01 03:39:59;;;;;;;4.55;3.13;;;5.50;99.90;;;;;;4787028;29;20051;-68
2023/01/01 03:42:35;;;;;;;7.10;2.60;;;5.50;99.90;;;;;;4785889;29;20582;-67
2023/01/01 03:45:08;;;;;;;4.07;2.53;;;5.50;99.90;;;;;;4786472;29;20124;-68
2023/01/01 03:47:37;;;;;;;3.65;3.00;;;5.60;99.90;;;;;;4784470;29;20433;-68
2023/01/01 03:50:07;;;;;;;4.68;3.25;;;5.60;99.90;;;;;;4779712;30;20060;-67
2023/01/01 03:52:45;;;;;;;4.43;3.53;;;5.60;99.90;;;;;;4780087;30;20079;-67
2023/01/01 03:55:22;;;;;;;7.68;3.85;;;5.60;99.90;;;;;;4785862;29;20059;-68
2023/01/01 03:57:58;;;;;;;5.18;3.08;;;5.60;99.90;;;;;;4785163;30;20116;-69
2023/01/01 04:00:32;;;;;;;5.85;3.28;;;5.60;99.90;;;;;;4781703;30;20050;-68
2023/01/01 04:03:06;;;;;;;5.47;3.95;;;5.60;99.90;;;;;;4778664;29;20063;-67
2023/01/01 04:05:38;;;;;;;7.50;4.05;;;5.50;99.90;;;;;;4786423;29;20059;-68
2023/01/01 04:08:06;;;;;;;7.97;3.45;;;5.50;99.90;;;;;;4785142;29;20421;-68
2023/01/01 04:10:38;;;;;;;8.70;3.67;;;5.50;99.90;;;;;;4784712;29;20059;-68
2023/01/01 04:13:07;;;;;;;7.03;3.85;;;5.50;99.90;;;;;;4784988;29;20051;-68
2023/01/01 04:15:35;;;;;;;6.50;3.28;;;5.50;99.90;;;;;;4784425;29;20591;-68
2023/01/01 04:18:05;;;;;;;5.82;3.30;;;5.60;99.90;;;;;;4768814;30;20059;-69
2023/01/01 04:20:32;;;;;;;8.93;4.35;;;5.60;99.90;;;;;;4786624;29;20143;-68
2023/01/01 04:23:02;;;;;;;8.02;3.55;;;5.60;99.90;;;;;;4786545;29;20059;-68
2023/01/01 04:25:30;;;;;;;7.90;3.42;;;5.60;99.90;;;;;;4784963;29;20440;-68
2023/01/01 04:27:58;;;;;;;6.07;3.33;;;5.60;99.90;;;;;;4785179;30;20131;-68
2023/01/01 04:30:27;;;;;;;5.28;2.97;;;5.60;99.90;;;;;;4784458;29;20082;-68
2023/01/01 04:32:55;;;;;;;8.25;2.75;;;5.60;99.90;;;;;;4767408;30;20065;-68
2023/01/01 04:35:24;;;;;;;8.88;2.55;;;5.60;99.90;;;;;;4782345;29;20055;-68
2023/01/01 04:37:55;;;;;;;6.90;3.15;;;5.60;99.90;;;;;;4785393;29;20058;-68
2023/01/01 04:40:22;;;;;;;8.45;2.95;;;5.70;99.90;;;;;;4786238;29;20421;-68
2023/01/01 04:42:53;;;;;;;10.18;2.83;;;5.70;99.90;;;;;;4779419;29;20471;-68
2023/01/01 04:45:21;;;;;;;3.83;2.55;;;5.80;99.90;;;;;;4768317;30;20471;-68
2023/01/01 04:47:48;;;;;;;3.92;2.53;;;5.80;99.90;;;;;;4768546;30;20113;-68
2023/01/01 04:50:16;;;;;;;6.13;2.40;;;5.80;99.90;;;;;;4782212;30;20059;-69
2023/01/01 04:52:45;;;;;;;5.90;2.65;;;5.80;99.90;;;;;;4773398;29;20141;-68
2023/01/01 04:55:12;;;;;;;8.25;3.35;;;5.80;99.90;;;;;;4779561;29;20055;-68
2023/01/01 04:57:41;;;;;;;5.55;2.22;;;5.90;99.90;;;;;;4786487;29;20059;-68
2023/01/01 05:00:10;;;;;;;8.82;2.22;;;5.90;99.90;;;;;;4784885;30;20090;-68
2023/01/01 05:02:37;;;;;;;9.77;2.45;;;5.90;99.90;;;;;;4786498;29;20054;-67
2023/01/01 05:05:05;;;;;;;8.95;2.95;;;5.90;99.90;;;;;;4779901;29;20059;-68
2023/01/01 05:07:33;;;;;;;6.57;3.05;;;5.90;99.90;;;;;;4773824;29;20056;-68
2023/01/01 05:10:02;;;;;;;5.72;2.40;;;5.90;99.90;;;;;;4768015;30;20056;-68
2023/01/01 05:12:31;;;;;;;8.07;3.15;;;5.90;99.90;;;;;;4768358;30;20059;-68
2023/01/01 05:14:58;;;;;;;5.85;2.15;;;5.90;99.90;;;;;;4767919;30;20107;-68
2023/01/01 05:17:25;;;;;;;9.15;2.65;;;5.90;99.90;;;;;;4767078;30;20112;-68
2023/01/01 05:19:53;;;;;;;8.25;2.47;;;5.90;99.90;;;;;;4768016;30;20056;-68
2023/01/01 05:22:20;;;;;;;10.85;2.88;;;5.90;99.90;;;;;;4767307;30;20594;-68
2023/01/01 05:24:48;;;;;;;11.60;2.70;;;5.90;99.90;;;;;;4767794;30;20094;-68
2023/01/01 05:27:17;;;;;;;8.77;2.10;;;5.90;99.90;;;;;;4766860;29;20462;-70
2023/01/01 05:29:44;;;;;;;8.80;2.17;;;5.90;99.90;;;;;;4767791;30;20047;-70
2023/01/01 05:32:12;;;;;;;10.35;2.45;;;5.90;99.90;;;;;;4779953;30;20044;-70
2023/01/01 05:34:39;;;;;;;8.80;2.65;;;5.90;99.90;;;;;;4784458;29;20051;-71
2023/01/01 05:37:07;;;;;;;5.53;2.15;;;5.90;99.90;;;;;;4786086;29;20394;-71
2023/01/01 05:39:36;;;;;;;8.40;2.63;;;5.90;99.90;;;;;;4785875;29;20123;-70
2023/01/01 05:42:03;;;;;;;9.32;2.38;;;5.90;99.90;;;;;;4785955;29;20043;-71
2023/01/01 05:44:32;;;;;;;10.50;2.20;;;5.90;99.90;;;;;;4799533;29;20087;-71
2023/01/01 05:47:00;;;;;;;7.30;2.40;;;5.80;99.90;;;;;;4785908;29;20051;-71
2023/01/01 05:49:27;;;;;;;9.02;2.15;;;5.80;99.90;;;;;;4785766;29;20058;-68
2023/01/01 05:51:54;;;;;;;4.78;2.35;;;5.70;99.90;;;;;;4785792;29;20157;-68
2023/01/01 05:54:22;;;;;;;10.50;2.40;;;5.70;99.90;;;;;;4785252;29;20070;-68
2023/01/01 05:56:49;;;;;;;7.60;1.70;;;5.70;99.90;;;;;;4785737;29;20056;-68
2023/01/01 05:59:17;;;;;;;7.13;2.47;;;5.70;99.90;;;;;;4787047;29;20456;-68
2023/01/01 06:01:46;;;;;;;7.72;1.90;;;5.60;99.90;;;;;;4788999;29;20509;-68
2023/01/01 06:04:14;;;;;;;8.55;2.33;;;5.60;99.90;;;;;;4788648;29;20070;-69
2023/01/01 06:06:41;;;;;;;5.50;2.28;;;5.50;99.90;;;;;;4786516;29;20047;-68
2023/01/01 06:09:11;;;;;;;9.65;2.03;;;5.50;99.90;;;;;;4786885;29;20460;-71
2023/01/01 06:11:38;;;;;;;5.55;1.55;;;5.50;99.90;;;;;;4788075;29;20524;-72
2023/01/01 06:14:06;;;;;;;9.88;1.88;;;5.40;99.90;;;;;;4785510;29;20079;-71
2023/01/01 06:16:34;;;;;;;11.35;1.92;;;5.30;99.90;;;;;;4778990;30;20066;-71
2023/01/01 06:19:03;;;;;;;6.50;2.20;;;5.10;99.90;;;;;;4771940;29;20090;-71
2023/01/01 06:21:30;;;;;;;14.52;2.53;;;5.00;99.90;;;;;;4770769;30;20074;-71
2023/01/01 06:23:59;;;;;;;7.50;1.98;;;4.90;99.90;;;;;;4770655;30;20525;-72
2023/01/01 06:26:30;;;;;;;7.00;1.90;;;4.80;99.90;;;;;;4775424;30;20055;-71
2023/01/01 06:28:58;;;;;;;10.40;2.15;;;4.70;99.90;;;;;;4788600;29;20063;-71
2023/01/01 06:31:27;;;;;;;9.00;1.70;;;4.60;99.90;;;;;;4787196;30;20441;-71
2023/01/01 06:33:55;;;;;;;10.73;2.00;;;4.60;99.90;;;;;;4802183;29;20055;-71
2023/01/01 06:36:26;;;;;;;14.10;2.47;;;4.50;99.90;;;;;;4788473;29;20059;-71
2023/01/01 06:38:57;;;;;;;7.80;2.53;;;4.50;99.90;;;;;;4788560;29;20054;-71
2023/01/01 06:41:27;;;;;;;8.07;2.15;;;4.50;99.90;;;;;;4787085;30;20516;-71
2023/01/01 06:43:56;;;;;;;10.50;1.95;;;4.50;99.90;;;;;;4788829;29;20066;-68
2023/01/01 06:46:25;;;;;;;13.77;3.63;;;4.40;99.90;;;;;;4788588;29;20056;-67
2023/01/01 06:48:55;;;;;;;8.93;1.77;;;4.40;99.90;;;;;;4788501;29;20455;-67
2023/01/01 06:51:26;;;;;;;7.40;1.65;;;4.40;99.90;;;;;;4788224;29;20105;-68
2023/01/01 06:53:54;;;;;;;9.23;1.60;;;4.30;99.90;;;;;;4788608;29;20063;-70
2023/01/01 06:56:22;;;;;;;9.93;2.00;;;4.30;99.90;;;;;;4785489;29;20150;-69
2023/01/01 06:58:50;;;;;;;10.93;1.92;;;4.30;99.90;;;;;;4786784;29;20165;-66
2023/01/01 07:01:20;;;;;;;10.73;2.55;;;4.20;99.90;;;;;;4784730;29;20086;-68
2023/01/01 07:03:52;;;;;;;12.55;1.90;;;4.20;99.90;;;;;;4787994;29;20141;-68
2023/01/01 07:06:20;;;;;;;9.40;1.77;;;4.20;99.90;;;;;;4787396;29;20052;-70
2023/01/01 07:08:49;;;;;;;9.98;2.65;;;4.20;99.90;;;;;;4786999;29;20497;-69
2023/01/01 07:11:17;;;;;;;9.88;1.92;;;4.20;99.90;;;;;;4754017;30;20091;-67
2023/01/01 07:13:44;;;;;;;7.85;2.65;;;4.20;99.90;;;;;;4768596;30;20341;-69
2023/01/01 07:16:12;;;;;;;10.43;2.00;;;4.10;99.90;;;;;;4769752;30;20151;-68
2023/01/01 07:18:40;;;;;;;9.95;2.92;;;4.10;99.90;;;;;;4753973;30;20055;-66
2023/01/01 07:21:32;;;;;;;11.95;2.78;;;4.10;99.90;;;;;;4797375;29;20413;-68
2023/01/01 07:24:03;;;;;;;9.23;2.15;;;4.10;99.90;;;;;;4804050;29;20443;-67
2023/01/01 07:26:33;;;;;;;8.43;1.80;;;4.10;99.90;;;;;;4794845;29;20051;-67
2023/01/01 07:29:01;;;;;;;9.40;2.08;;;4.10;99.90;;;;;;4787680;29;20150;-68
2023/01/01 07:31:28;;;;;;;10.60;2.20;;;4.10;99.90;;;;;;4786433;30;20461;-67
2023/01/01 07:33:56;;;;;;;11.18;3.03;;;4.10;99.90;;;;;;4786621;30;20067;-68
2023/01/01 07:36:23;;;;;;;5.75;2.13;;;4.20;99.90;;;;;;4787438;29;20059;-67
2023/01/01 07:38:51;;;;;;;6.78;1.60;;;4.20;99.90;;;;;;4784758;30;20510;-68
2023/01/01 07:41:20;;;;;;;14.70;2.20;;;4.20;99.90;;;;;;4787412;29;20093;-69
2023/01/01 07:43:47;;;;;;;5.30;2.33;;;4.20;99.90;;;;;;4774790;29;20107;-68
2023/01/01 07:46:17;;;;;;;9.85;2.17;;;4.20;99.90;;;;;;4770595;29;20050;-67
2023/01/01 07:48:45;;;;;;;9.65;2.25;;;4.20;99.90;;;;;;4779991;29;20526;-70
2023/01/01 07:51:13;;;;;;;10.82;2.45;;;4.20;99.90;;;;;;4779216;29;20047;-70
2023/01/01 07:53:40;;;;;;;12.40;2.90;;;4.30;99.90;;;;;;4777810;29;20091;-70
2023/01/01 07:56:08;;;;;;;11.73;2.60;;;4.20;99.90;;;;;;4778350;30;20108;-71
2023/01/01 07:58:40;;;;;;;5.35;1.30;;;4.30;99.90;;;;;;4776719;29;20051;-70
2023/01/01 08:01:11;;;;;;;10.38;1.98;;;4.30;99.90;;;;;;4784888;29;20126;-69
2023/01/01 08:03:38;;;;;;;9.55;1.98;;;4.30;99.90;;;;;;4783358;29;20070;-74
2023/01/01 08:06:09;;;;;;;12.95;1.70;;;4.30;99.90;;;;;;4786685;29;20473;-75
2023/01/01 08:08:36;;;;;;;9.75;2.22;;;4.30;99.90;;;;;;4784620;29;20472;-74
2023/01/01 08:11:04;;;;;;;12.10;2.20;;;4.30;99.90;;;;;;4773360;30;20462;-73
2023/01/01 08:13:32;;;;;;;9.60;2.63;;;4.30;99.90;;;;;;4773283;30;20075;-74
2023/01/01 08:16:01;;;;;;;11.85;2.17;;;4.30;99.90;;;;;;4779367;30;20334;-71
2023/01/01 08:18:39;;;;;;;9.05;1.98;;;4.30;99.90;;;;;;4778710;29;20112;-72
2023/01/01 08:21:07;;;;;;;7.38;2.05;;;4.30;99.90;;;;;;4780486;29;20051;-69
2023/01/01 08:23:34;;;;;;;8.35;2.80;;;4.30;99.90;;;;;;4776857;29;20459;-71
2023/01/01 08:26:03;;;;;;;14.90;2.97;;;4.40;99.90;;;;;;4776807;30;20428;-76
2023/01/01 08:28:31;;;;;;;9.70;1.90;;;4.40;99.90;;;;;;4776702;29;20100;-70
2023/01/01 08:30:59;;;;;;;9.52;2.00;;;4.40;99.90;;;;;;4776948;30;20051;-70
2023/01/01 08:33:31;;;;;;;9.27;2.17;;;4.50;99.90;;;;;;4778385;29;20056;-70
2023/01/01 08:36:00;;;;;;;6.75;1.67;;;4.50;99.90;;;;;;4763055;30;20059;-70
2023/01/01 08:38:27;;;;;;;13.02;2.22;;;4.50;99.90;;;;;;4774613;30;20082;-73
2023/01/01 08:40:55;;;;;;;10.02;2.30;;;4.50;99.90;;;;;;4779315;30;20051;-71
2023/01/01 08:43:24;;;;;;;7.32;1.90;;;4.50;99.90;;;;;;4777599;29;20074;-71
2023/01/01 08:45:52;;;;;;;11.07;2.33;;;4.50;99.90;;;;;;4775775;30;20540;-71
2023/01/01 08:48:19;;;;;;;15.45;2.25;;;4.40;99.90;;;;;;4790238;29;20069;-71
2023/01/01 08:51:00;;;;;;;9.75;1.80;;;4.40;99.90;;;;;;4790439;29;20052;-70
2023/01/01 08:53:31;;;;;;;7.45;1.45;;;4.40;99.90;;;;;;4776691;30;20051;-74
2023/01/01 08:56:02;;;;;;;9.48;2.03;;;4.30;99.90;;;;;;4773907;29;20060;-69
2023/01/01 08:58:34;;;;;;;12.13;2.35;;;4.30;99.90;;;;;;4791218;29;20558;-69
2023/01/01 09:01:02;;;;;;;9.27;1.85;;;4.30;99.90;;;;;;4772105;29;20055;-71
2023/01/01 09:03:30;;;;;;;6.18;2.10;;;4.30;99.90;;;;;;4771003;29;20146;-72
2023/01/01 09:05:59;;;;;;;9.32;1.73;;;4.20;99.90;;;;;;4778206;29;20083;-75
2023/01/01 09:08:27;;;;;;;7.72;2.03;;;4.20;99.90;;;;;;4774438;29;20048;-69
2023/01/01 09:10:59;;;;;;;13.25;2.60;;;4.20;99.90;;;;;;4772510;29;20142;-72
2023/01/01 09:13:28;;;;;;;5.70;2.30;;;4.30;99.90;;;;;;4777427;29;20113;-73
2023/01/01 09:15:56;;;;;;;15.43;3.00;;;4.20;99.90;;;;;;4775752;29;20047;-74
2023/01/01 09:18:23;;;;;;;10.35;2.38;;;4.20;99.90;;;;;;4782849;29;20046;-74
2023/01/01 09:20:51;;;;;;;9.57;2.10;;;4.20;99.90;;;;;;4776385;30;20146;-74
2023/01/01 09:23:20;;;;;;;7.65;1.80;;;4.20;99.90;;;;;;4781884;29;20202;-73
2023/01/01 09:25:49;;;;;;;6.35;1.83;;;4.20;99.90;;;;;;4774048;30;20704;-73
2023/01/01 09:28:16;;;;;;;11.77;2.25;;;4.20;99.90;;;;;;4766590;30;20055;-74
2023/01/01 09:30:44;;;;;;;6.72;1.75;;;4.20;99.90;;;;;;4773556;29;20149;-74
2023/01/01 09:33:11;;;;;;;9.00;2.05;;;4.30;99.90;;;;;;4775912;29;20524;-75
2023/01/01 09:35:42;;;;;;;12.68;2.08;;;4.30;99.90;;;;;;4771858;29;20066;-69
2023/01/01 09:38:10;;;;;;;8.73;1.63;;;4.30;99.90;;;;;;4778001;29;20051;-71
2023/01/01 09:40:56;;;;;;;7.07;1.42;;;4.30;99.90;;;;;;4780450;29;20074;-70
2023/01/01 09:43:34;;;;;;;8.02;1.63;;;4.30;99.90;;;;;;4769428;30;20078;-75
2023/01/01 09:46:05;;;;;;;6.70;1.88;;;4.30;99.90;;;;;;4769894;29;20082;-76
2023/01/01 09:48:36;;;;;;;7.00;1.63;;;4.30;99.90;;;;;;4778587;29;20414;-76
2023/01/01 09:51:14;;;;;;;6.28;2.17;;;4.30;99.90;;;;;;4788155;29;20062;-77
2023/01/01 09:53:45;;;;;;;9.57;2.65;;;4.20;99.90;;;;;;4771129;30;20055;-76
2023/01/01 09:56:20;;;;;;;9.90;1.60;;;4.20;99.90;;;;;;4781338;29;20047;-77
2023/01/01 09:58:48;;;;;;;9.57;1.58;;;4.20;99.90;;;;;;4789229;29;20583;-77
2023/01/01 10:01:26;;;;;;;8.88;1.65;;;4.10;99.90;;;;;;4776770;29;20051;-77
2023/01/01 10:04:02;;;;;;;6.18;1.10;;;4.10;99.90;;;;;;4771220;30;20070;-74
2023/01/01 10:06:33;;;;;;;5.40;1.60;;;4.10;99.90;;;;;;4777548;29;20063;-73
2023/01/01 10:09:13;;;;;;;7.40;1.70;;;4.00;99.90;;;;;;4789869;29;20154;-73
2023/01/01 10:11:51;;;;;;;6.55;1.77;;;3.90;99.90;;;;;;4781887;30;20055;-71
2023/01/01 10:14:28;;;;;;;7.93;1.50;;;3.90;99.90;;;;;;4771462;30;20142;-69
2023/01/01 10:16:59;;;;;;;4.60;1.05;;;3.90;99.90;;;;;;4780522;30;20143;-71
2023/01/01 10:19:35;;;;;;;6.25;1.00;;;3.90;99.90;;;;;;4785401;29;20059;-70
2023/01/01 10:22:09;;;;;;;7.72;1.25;;;3.90;99.90;;;;;;4790478;29;20069;-69
2023/01/01 10:24:43;;;;;;;6.68;1.80;;;3.90;99.90;;;;;;4799701;29;20062;-70
2023/01/01 10:27:25;;;;;;;6.18;1.98;;;3.90;99.90;;;;;;4794076;29;20090;-70
2023/01/01 10:29:54;;;;;;;4.10;1.27;;;3.90;99.90;;;;;;4798126;29;20520;-70
2023/01/01 10:32:28;;;;;;;5.07;1.70;;;3.90;99.90;;;;;;4794225;29;20043;-70
2023/01/01 10:34:58;;;;;;;9.18;1.70;;;3.90;99.90;;;;;;4796638;29;20055;-70
2023/01/01 10:37:37;;;;;;;10.98;2.45;;;3.80;99.90;;;;;;4802185;29;20058;-71
2023/01/01 10:40:16;;;;;;;5.75;1.70;;;3.80;99.90;;;;;;4800156;29;20046;-72
2023/01/01 10:42:53;;;;;;;7.63;1.45;;;3.80;99.90;;;;;;4799360;29;20143;-69
2023/01/01 10:45:30;;;;;;;6.95;1.50;;;3.80;99.90;;;;;;4796255;29;20065;-72
2023/01/01 10:48:17;;;;;;;10.35;2.50;;;3.80;99.90;;;;;;4799117;29;20132;-72
2023/01/01 10:50:50;;;;;;;6.68;1.45;;;3.80;99.90;;;;;;4792631;29;20409;-71
2023/01/01 10:53:39;;;;;;;6.55;2.20;;;3.80;99.90;;;;;;4789065;29;20118;-72
2023/01/01 10:56:11;;;;;;;6.10;2.05;;;3.80;99.90;;;;;;4787725;29;20051;-70
2023/01/01 10:58:47;;;;;;;9.57;1.83;;;3.80;99.90;;;;;;4775747;29;20059;-70
2023/01/01 11:01:23;;;;;;;10.35;2.53;;;3.90;99.90;;;;;;4788144;29;20504;-75
2023/01/01 11:04:02;;;;;;;7.55;1.90;;;3.90;99.90;;;;;;4795806;29;20055;-75
2023/01/01 11:06:35;;;;;;;8.18;1.63;;;3.90;99.90;;;;;;4795624;29;20424;-75
2023/01/01 11:09:06;;;;;;;8.82;1.20;;;3.90;99.90;;;;;;4795806;29;20131;-70
2023/01/01 11:11:42;;;;;;;5.05;1.20;;;3.90;99.90;;;;;;4797628;29;20066;-71
2023/01/01 11:14:21;;;;;;;7.43;1.58;;;3.90;99.90;;;;;;4795124;29;20061;-71
2023/01/01 11:16:50;;;;;;;10.90;1.55;;;3.90;99.90;;;;;;4795787;29;20058;-71
2023/01/01 11:19:24;;;;;;;7.95;1.73;;;3.90;99.90;;;;;;4787367;29;20059;-71
2023/01/01 11:21:52;;;;;;;7.75;1.70;;;4.00;99.90;;;;;;4798536;29;20069;-71
2023/01/01 11:24:22;;;;;;;8.95;2.30;;;4.00;99.90;;;;;;4793037;29;20050;-72
2023/01/01 11:26:52;;;;;;;7.90;1.85;;;4.00;99.90;;;;;;4797118;29;20093;-75
2023/01/01 11:29:27;;;;;;;6.15;1.55;;;4.00;99.90;;;;;;4780128;29;20050;-76
2023/01/01 11:31:55;;;;;;;10.65;1.95;;;4.00;99.90;;;;;;4794920;29;20142;-76
2023/01/01 11:34:33;;;;;;;9.60;1.73;;;4.00;99.90;;;;;;4794549;29;20143;-76
2023/01/01 11:37:19;;;;;;;7.03;1.40;;;3.90;99.90;;;;;;4781872;29;20066;-71
2023/01/01 11:39:49;;;;;;;7.00;1.80;;;3.90;99.90;;;;;;4794377;29;20480;-70
2023/01/01 11:42:19;;;;;;;11.50;2.03;;;3.80;99.90;;;;;;4799407;29;20055;-69
2023/01/01 11:44:52;;;;;;;9.27;1.60;;;3.80;99.90;;;;;;4796231;29;20103;-72
2023/01/01 11:47:26;;;;;;;6.28;2.08;;;3.70;99.90;;;;;;4793839;29;20055;-71
2023/01/01 11:49:57;;;;;;;10.27;2.10;;;3.60;99.90;;;;;;4789133;29;20059;-72
2023/01/01 11:52:35;;;;;;;8.40;2.55;;;3.60;99.90;;;;;;4794370;29;20154;-70
2023/01/01 11:55:19;;;;;;;8.93;1.70;;;3.50;99.90;;;;;;4797382;29;20059;-70
2023/01/01 11:57:57;;;;;;;11.05;1.52;;;3.60;99.90;;;;;;4794922;29;20047;-70
2023/01/01 12:00:29;;;;;;;8.32;2.00;;;3.60;99.90;;;;;;4793408;29;20067;-77
2023/01/01 12:03:01;;;;;;;8.88;2.03;;;3.60;99.90;;;;;;4787792;29;20202;-75
2023/01/01 12:05:44;;;;;;;6.22;2.13;;;3.60;99.90;;;;;;4789224;29;20059;-70
2023/01/01 12:08:19;;;;;;;10.90;2.08;;;3.60;99.90;;;;;;4792970;29;20913;-72
2023/01/01 12:10:56;;;;;;;8.27;1.73;;;3.60;99.90;;;;;;4799123;29;20117;-72
2023/01/01 12:13:30;;;;;;;11.57;2.13;;;3.60;99.90;;;;;;4801288;29;20062;-71
2023/01/01 12:16:09;;;;;;;5.32;1.90;;;3.60;99.90;;;;;;4813512;29;20061;-71
2023/01/01 12:18:46;;;;;;;4.90;1.48;;;3.50;99.90;;;;;;4791384;29;20089;-70
2023/01/01 12:21:22;;;;;;;9.18;2.25;;;3.50;99.90;;;;;;4790484;29;20536;-71
2023/01/01 12:23:50;;;;;;;6.28;1.58;;;3.50;99.90;;;;;;4799521;29;20828;-70
2023/01/01 12:26:24;;;;;;;10.20;1.88;;;3.40;99.90;;;;;;4792531;29;20412;-72
2023/01/01 12:29:33;;;;;;;6.82;1.55;;;3.40;99.90;;;;;;4790141;29;20565;-71
2023/01/01 12:32:09;;;;;;;8.73;1.75;;;3.40;99.90;;;;;;4787254;29;20108;-70
2023/01/01 12:34:43;;;;;;;12.35;1.90;;;3.40;99.90;;;;;;4791897;29;20112;-72
2023/01/01 12:37:24;;;;;;;4.93;1.33;;;3.30;99.90;;;;;;4793477;29;20051;-72
2023/01/01 12:40:33;;;;;;;5.75;1.60;;;3.30;99.90;;;;;;4794223;29;20169;-70
2023/01/01 12:43:07;;;;;;;8.30;1.95;;;3.30;99.90;;;;;;4796270;29;20800;-70
2023/01/01 12:46:13;;;;;;;8.60;2.03;;;3.20;99.90;;;;;;4785184;29;20061;-72
2023/01/01 12:49:01;;;;;;;6.95;1.58;;;3.10;99.90;;;;;;4792720;29;20048;-71
2023/01/01 12:51:42;;;;;;;5.20;1.23;;;3.10;99.90;;;;;;4786258;29;20101;-70
2023/01/01 12:54:43;;;;;;;5.60;1.63;;;2.90;99.90;;;;;;4794964;29;20043;-75
2023/01/01 12:57:19;;;;;;;7.13;1.60;;;2.80;99.90;;;;;;4794909;29;20517;-73
2023/01/01 12:59:50;;;;;;;5.97;1.38;;;2.70;99.90;;;;;;4786271;29;20091;-71
2023/01/01 13:02:22;;;;;;;11.50;1.85;;;2.60;99.90;;;;;;4786531;29;20074;-73
2023/01/01 13:04:56;;;;;;;6.90;1.65;;;2.60;99.90;;;;;;4788381;29;20508;-70
2023/01/01 13:07:30;;;;;;;5.95;2.10;;;2.50;99.90;;;;;;4797851;29;20051;-72
2023/01/01 13:10:08;;;;;;;6.97;1.73;;;2.40;99.90;;;;;;4792849;29;20357;-71
2023/01/01 13:12:37;;;;;;;6.60;1.77;;;2.40;99.90;;;;;;4791318;29;20055;-72
2023/01/01 13:15:49;;;;;;;7.93;1.63;;;2.30;99.90;;;;;;4797811;29;20575;-72
2023/01/01 13:18:30;;;;;;;12.73;1.88;;;2.40;99.90;;;;;;4798799;29;20070;-72
2023/01/01 13:21:08;;;;;;;7.95;1.42;;;2.40;99.90;;;;;;4790970;29;20047;-71
2023/01/01 13:23:51;;;;;;;9.52;1.60;;;2.50;99.90;;;;;;4786595;29;20069;-72